Time;durP1;ratioP1;P1;durP2;ratioP2;P2;SDS_P1;SDS_P2;PMS_P1;PMS_P2;Temp;Humidity;BMP_temperature;BMP_pressure;BME280_temperature;BME280_humidity;BME280_pressure;Samples;Min_cycle;Max_cycle;Signal;HPM_P1;HPM_P2
2021/06/07 00:02:23;;;;;;;3.10;2.90;;;14.70;99.90;14.40;97081.00;;;;5026590;28;20711;-64
2021/06/07 00:05:13;;;;;;;2.73;2.53;;;14.70;99.90;14.40;97089.00;;;;5024716;28;20735;-64
2021/06/07 00:08:03;;;;;;;2.97;2.77;;;14.70;99.90;14.30;97074.00;;;;5024715;28;20583;-65
2021/06/07 00:10:53;;;;;;;4.57;3.30;;;14.70;99.90;14.30;97082.00;;;;5023279;28;20290;-65
2021/06/07 00:13:44;;;;;;;3.47;3.20;;;14.70;99.90;14.30;97082.00;;;;5025661;28;20215;-65
2021/06/07 00:16:33;;;;;;;2.67;2.47;;;14.70;99.90;14.30;97082.00;;;;5024821;28;20591;-64
2021/06/07 00:19:22;;;;;;;3.93;3.43;;;14.70;99.90;14.30;97072.00;;;;5024832;28;20460;-65
2021/06/07 00:22:11;;;;;;;10.20;3.13;;;14.70;99.90;14.40;97084.00;;;;5026273;28;20209;-65
2021/06/07 00:25:02;;;;;;;3.33;3.03;;;14.70;99.90;14.40;97095.00;;;;5025240;28;20213;-65
2021/06/07 00:27:50;;;;;;;4.30;3.87;;;14.70;99.90;14.40;97089.00;;;;5024486;28;20395;-65
2021/06/07 00:30:39;;;;;;;6.93;3.30;;;14.70;99.90;14.40;97087.00;;;;5024966;28;20213;-64
2021/06/07 00:33:28;;;;;;;5.30;3.47;;;14.70;99.90;14.30;97085.00;;;;5019807;28;20216;-65
2021/06/07 00:36:20;;;;;;;4.10;3.70;;;14.70;99.90;14.30;97091.00;;;;5025020;28;20225;-65
2021/06/07 00:39:11;;;;;;;5.93;3.70;;;14.70;99.90;14.30;97097.00;;;;5023222;28;20704;-65
2021/06/07 00:42:01;;;;;;;3.50;3.07;;;14.70;99.90;14.30;97087.00;;;;5024467;28;20610;-65
2021/06/07 00:44:49;;;;;;;4.10;3.70;;;14.70;99.90;14.10;97088.00;;;;5024898;28;20197;-65
2021/06/07 00:47:40;;;;;;;9.27;3.30;;;14.60;99.90;14.10;97092.00;;;;5025942;28;20696;-65
2021/06/07 00:50:39;;;;;;;18.43;7.47;;;14.60;99.90;14.10;97089.00;;;;5030970;28;20451;-65
2021/06/07 00:53:27;;;;;;;4.27;3.87;;;14.50;99.90;14.00;97089.00;;;;5034385;28;20208;-65
2021/06/07 00:56:16;;;;;;;3.97;3.43;;;14.50;99.90;14.10;97090.00;;;;5026168;28;20221;-65
2021/06/07 00:59:06;;;;;;;5.93;3.47;;;14.50;99.90;14.00;97087.00;;;;5025434;28;20605;-65
2021/06/07 01:01:54;;;;;;;5.07;4.17;;;14.40;99.90;13.90;97086.00;;;;5024476;28;20201;-65
2021/06/07 01:04:42;;;;;;;4.07;3.73;;;14.40;99.90;13.90;97087.00;;;;5025197;28;20209;-65
2021/06/07 01:07:30;;;;;;;4.37;4.00;;;14.40;99.90;13.90;97087.00;;;;5023969;28;20197;-64
2021/06/07 01:10:19;;;;;;;4.43;4.03;;;14.30;99.90;13.80;97080.00;;;;5024401;28;20229;-65
2021/06/07 01:13:08;;;;;;;4.10;3.73;;;14.30;99.90;13.80;97086.00;;;;5024041;28;20209;-64
2021/06/07 01:15:58;;;;;;;3.87;3.57;;;14.20;99.90;13.80;97086.00;;;;5025929;28;20248;-65
2021/06/07 01:18:50;;;;;;;8.07;5.43;;;14.20;99.90;13.70;97084.00;;;;5038407;28;20205;-64
2021/06/07 01:21:38;;;;;;;5.23;3.53;;;14.20;99.90;13.70;97090.00;;;;5024106;28;20208;-65
2021/06/07 01:24:28;;;;;;;5.20;3.70;;;14.20;99.90;13.60;97070.00;;;;5025648;28;20276;-65
2021/06/07 01:27:16;;;;;;;4.80;4.37;;;14.10;99.90;13.60;97076.00;;;;5036260;28;20220;-65
2021/06/07 01:30:11;;;;;;;7.77;5.37;;;14.10;99.90;13.50;97082.00;;;;5023459;28;20225;-65
2021/06/07 01:33:01;;;;;;;6.37;5.10;;;14.10;99.90;13.50;97075.00;;;;5037364;28;20597;-64
2021/06/07 01:35:53;;;;;;;6.53;5.93;;;14.00;99.90;13.50;97085.00;;;;5024673;28;20712;-65
2021/06/07 01:38:41;;;;;;;5.93;5.43;;;13.90;99.90;13.40;97074.00;;;;5024424;28;20202;-64
2021/06/07 01:41:32;;;;;;;6.30;4.77;;;13.90;99.90;13.40;97076.00;;;;5023344;28;20201;-65
2021/06/07 01:44:21;;;;;;;6.93;5.40;;;13.80;99.90;13.30;97076.00;;;;5024649;28;20213;-65
2021/06/07 01:47:09;;;;;;;5.03;4.67;;;13.80;99.90;13.20;97081.00;;;;5024655;28;20216;-65
2021/06/07 01:49:58;;;;;;;4.67;4.27;;;13.00;99.90;13.10;97074.00;;;;5031298;28;20216;-65
2021/06/07 01:52:50;;;;;;;6.60;5.20;;;13.70;99.90;13.10;97071.00;;;;5028744;28;20204;-65
2021/06/07 01:55:41;;;;;;;8.33;6.63;;;13.60;99.90;13.10;97073.00;;;;5028144;28;20232;-65
2021/06/07 01:58:31;;;;;;;5.90;5.37;;;13.60;99.90;13.10;97071.00;;;;5048228;28;20192;-63
2021/06/07 02:01:24;;;;;;;6.83;6.13;;;13.50;99.90;13.00;97074.00;;;;5044773;28;20672;-65
2021/06/07 02:04:12;;;;;;;6.20;5.40;;;13.50;99.90;12.90;97056.00;;;;5030700;28;20201;-65
2021/06/07 02:07:02;;;;;;;7.50;6.77;;;13.50;99.90;12.80;97061.00;;;;5027020;28;20212;-65
2021/06/07 02:09:50;;;;;;;6.53;5.83;;;13.40;99.90;12.90;97065.00;;;;5027537;28;20647;-65
2021/06/07 02:12:38;;;;;;;6.40;5.80;;;13.30;99.90;12.70;97059.00;;;;5037212;28;20571;-64
2021/06/07 02:15:28;;;;;;;7.80;5.40;;;13.30;99.90;12.70;97062.00;;;;5030504;28;20224;-64
2021/06/07 02:18:16;;;;;;;6.37;5.77;;;13.30;99.90;12.70;97071.00;;;;5027460;28;20232;-64
2021/06/07 02:21:06;;;;;;;8.30;5.23;;;13.20;99.90;12.70;97069.00;;;;5027820;28;20198;-64
2021/06/07 02:23:55;;;;;;;6.47;5.87;;;13.20;99.90;12.70;97065.00;;;;5028749;28;20668;-64
2021/06/07 02:26:44;;;;;;;5.73;5.20;;;13.20;99.90;12.60;97072.00;;;;5028778;28;20209;-64
2021/06/07 02:29:34;;;;;;;15.57;5.67;;;13.10;99.90;12.60;97066.00;;;;5026073;28;20229;-64
2021/06/07 02:32:24;;;;;;;7.47;6.43;;;13.10;99.90;12.50;97074.00;;;;5032948;28;20209;-64
2021/06/07 02:35:18;;;;;;;6.50;5.90;;;13.00;99.90;12.50;97067.00;;;;5027264;28;20610;-64
2021/06/07 02:38:08;;;;;;;13.03;6.53;;;13.00;99.90;12.50;97073.00;;;;5035574;28;20466;-63
2021/06/07 02:40:57;;;;;;;7.10;6.50;;;13.00;99.90;12.50;97076.00;;;;5041475;28;20598;-64
2021/06/07 02:43:45;;;;;;;10.07;6.83;;;13.00;99.90;12.40;97078.00;;;;5036753;28;20212;-64
2021/06/07 02:46:34;;;;;;;9.80;5.70;;;12.90;99.90;12.30;97083.00;;;;5033615;28;20771;-64
2021/06/07 02:49:23;;;;;;;9.77;6.80;;;12.90;99.90;12.40;97082.00;;;;5032517;28;20228;-64
2021/06/07 02:52:13;;;;;;;7.50;6.70;;;12.80;99.90;12.40;97076.00;;;;5033757;28;20206;-63
2021/06/07 02:55:01;;;;;;;6.63;5.83;;;12.80;99.90;12.20;97081.00;;;;5027547;28;20216;-64
2021/06/07 02:57:51;;;;;;;8.73;6.83;;;12.80;99.90;12.20;97081.00;;;;5025223;28;20577;-64
2021/06/07 03:00:43;;;;;;;8.50;7.70;;;12.80;99.90;12.30;97083.00;;;;5025971;28;20209;-64
2021/06/07 03:03:31;;;;;;;6.80;6.20;;;12.80;99.90;12.20;97080.00;;;;5026447;28;20230;-63
2021/06/07 03:06:21;;;;;;;9.13;8.23;;;12.70;99.90;12.20;97081.00;;;;5035121;28;20193;-64
2021/06/07 03:09:10;;;;;;;6.53;5.93;;;12.70;99.90;12.20;97078.00;;;;5046694;28;20224;-64
2021/06/07 03:11:58;;;;;;;6.80;6.20;;;12.70;99.90;12.10;97084.00;;;;5034205;28;20205;-64
2021/06/07 03:14:46;;;;;;;6.97;6.37;;;12.70;99.90;12.00;97090.00;;;;5047002;28;20606;-64
2021/06/07 03:17:35;;;;;;;7.80;7.10;;;12.60;99.90;12.10;97087.00;;;;5046973;28;20197;-64
2021/06/07 03:20:26;;;;;;;7.87;6.10;;;12.60;99.90;12.10;97083.00;;;;5041604;28;20733;-64
2021/06/07 03:23:18;;;;;;;9.60;6.83;;;12.60;99.90;12.10;97081.00;;;;5040062;28;20197;-64
2021/06/07 03:26:07;;;;;;;7.13;6.43;;;12.60;99.90;11.90;97089.00;;;;5045845;28;20227;-63
2021/06/07 03:28:56;;;;;;;6.23;5.63;;;12.50;99.90;12.00;97085.00;;;;5041244;28;20205;-64
2021/06/07 03:31:44;;;;;;;7.57;6.03;;;12.50;99.90;12.10;97091.00;;;;5032251;28;20201;-64
2021/06/07 03:34:33;;;;;;;7.23;6.63;;;12.50;99.90;12.10;97094.00;;;;5031964;28;20202;-64
2021/06/07 03:37:21;;;;;;;6.97;6.30;;;12.50;99.90;12.20;97094.00;;;;5027729;28;20308;-63
2021/06/07 03:40:15;;;;;;;7.10;6.27;;;12.50;99.90;12.10;97089.00;;;;5033078;28;20224;-64
2021/06/07 03:43:05;;;;;;;7.73;7.03;;;12.50;99.90;12.20;97089.00;;;;5027391;28;20209;-64
2021/06/07 03:45:53;;;;;;;6.93;6.33;;;12.50;99.90;12.30;97090.00;;;;5027793;28;20232;-63
2021/06/07 03:48:42;;;;;;;7.33;6.53;;;12.60;99.90;12.30;97082.00;;;;5026701;28;20193;-64
2021/06/07 03:51:30;;;;;;;7.27;6.57;;;12.60;99.90;12.40;97096.00;;;;5026206;28;20201;-64
2021/06/07 03:54:19;;;;;;;7.87;6.57;;;12.70;99.90;12.40;97092.00;;;;5026892;28;20240;-64
2021/06/07 03:57:10;;;;;;;9.77;6.27;;;12.70;99.90;12.40;97102.00;;;;5025264;28;20202;-64
2021/06/07 03:59:58;;;;;;;7.27;6.57;;;12.70;99.90;12.50;97100.00;;;;5026937;28;20555;-63
2021/06/07 04:02:46;;;;;;;7.03;6.43;;;12.80;99.90;12.50;97096.00;;;;5025538;28;20216;-63
2021/06/07 04:05:36;;;;;;;6.90;6.33;;;12.80;99.90;12.60;97105.00;;;;5026785;28;20198;-64
2021/06/07 04:08:24;;;;;;;6.53;5.93;;;12.90;99.90;12.50;97109.00;;;;5026228;28;20206;-64
2021/06/07 04:11:12;;;;;;;7.90;7.20;;;12.90;99.90;12.50;97105.00;;;;5026085;28;20202;-64
2021/06/07 04:14:02;;;;;;;19.93;8.50;;;12.90;99.90;12.50;97099.00;;;;5024504;28;20224;-64
2021/06/07 04:16:50;;;;;;;8.60;7.80;;;12.90;99.90;12.60;97101.00;;;;5026775;28;21051;-64
2021/06/07 04:19:39;;;;;;;8.13;7.27;;;13.00;99.90;12.70;97109.00;;;;5026588;28;20224;-64
2021/06/07 04:22:27;;;;;;;8.27;7.37;;;13.00;99.90;12.90;97109.00;;;;5026152;28;20602;-64
2021/06/07 04:25:19;;;;;;;8.43;6.87;;;13.10;99.90;12.90;97099.00;;;;5027323;28;20209;-63
2021/06/07 04:28:10;;;;;;;8.30;6.83;;;13.20;99.90;13.00;97093.00;;;;5026001;28;20256;-64
2021/06/07 04:31:00;;;;;;;7.57;6.87;;;13.20;99.90;13.00;97099.00;;;;5025895;28;20217;-64
2021/06/07 04:33:48;;;;;;;10.30;7.50;;;13.30;99.90;13.10;97100.00;;;;5025814;28;20206;-63
2021/06/07 04:36:37;;;;;;;9.90;7.00;;;13.30;99.90;13.10;97090.00;;;;5026000;28;20213;-64
2021/06/07 04:39:25;;;;;;;6.73;6.13;;;13.40;99.90;13.10;97097.00;;;;5026794;28;20306;-64
2021/06/07 04:42:13;;;;;;;7.13;6.50;;;13.40;99.90;13.10;97102.00;;;;5026684;28;20224;-64
2021/06/07 04:45:03;;;;;;;7.03;6.43;;;13.50;99.90;13.20;97103.00;;;;5024872;28;20673;-64
2021/06/07 04:47:53;;;;;;;8.07;6.30;;;13.50;99.90;13.40;97093.00;;;;5038781;28;20244;-64
2021/06/07 04:50:44;;;;;;;7.50;6.80;;;13.60;99.90;13.40;97095.00;;;;5038848;28;20224;-64
2021/06/07 04:53:32;;;;;;;7.60;6.87;;;13.70;99.90;13.50;97091.00;;;;5034950;28;20197;-64
2021/06/07 04:56:20;;;;;;;8.60;7.07;;;13.70;99.90;13.60;97090.00;;;;5026152;28;20209;-64
2021/06/07 04:59:08;;;;;;;9.17;7.20;;;13.80;99.90;13.90;97090.00;;;;5025556;28;20229;-63
2021/06/07 05:01:57;;;;;;;7.47;6.87;;;14.00;99.90;14.00;97095.00;;;;5024669;28;20228;-64
2021/06/07 05:04:46;;;;;;;9.10;7.30;;;14.10;99.90;14.00;97097.00;;;;5025078;28;20228;-63
2021/06/07 05:07:35;;;;;;;8.57;7.57;;;14.20;99.90;14.00;97092.00;;;;5026417;28;20641;-63
2021/06/07 05:10:23;;;;;;;7.77;6.97;;;14.30;99.90;14.20;97092.00;;;;5024199;28;20264;-64
2021/06/07 05:13:13;;;;;;;8.53;7.67;;;14.30;99.90;14.30;97095.00;;;;5025853;28;20217;-63
2021/06/07 05:16:02;;;;;;;8.80;6.83;;;14.50;99.90;14.30;97092.00;;;;5025675;28;20578;-63
2021/06/07 05:18:51;;;;;;;7.47;6.67;;;14.50;99.90;14.40;97087.00;;;;5025696;28;20197;-63
2021/06/07 05:21:40;;;;;;;7.70;7.00;;;14.60;99.90;14.40;97091.00;;;;5025349;28;20213;-63
2021/06/07 05:24:29;;;;;;;10.23;7.53;;;14.70;99.90;14.40;97085.00;;;;5024666;28;20221;-64
2021/06/07 05:27:17;;;;;;;8.63;7.77;;;14.70;99.90;14.60;97098.00;;;;5028427;28;20607;-64
2021/06/07 05:30:08;;;;;;;6.53;5.93;;;14.80;99.90;14.80;97091.00;;;;5029192;28;20216;-63
2021/06/07 05:32:57;;;;;;;7.87;7.17;;;14.90;99.90;15.00;97098.00;;;;5027856;28;20223;-63
2021/06/07 05:35:48;;;;;;;7.23;6.50;;;15.00;99.90;15.10;97099.00;;;;5028926;28;20205;-62
2021/06/07 05:38:38;;;;;;;6.07;5.47;;;15.10;99.90;15.30;97098.00;;;;5028453;28;20205;-65
2021/06/07 05:41:26;;;;;;;11.47;7.17;;;15.30;99.90;15.40;97104.00;;;;5038712;28;20209;-63
2021/06/07 05:44:15;;;;;;;10.00;7.37;;;15.40;99.90;15.50;97095.00;;;;5030249;28;20719;-64
2021/06/07 05:47:04;;;;;;;7.30;5.33;;;15.60;99.90;15.60;97093.00;;;;5030439;28;20228;-64
2021/06/07 05:49:52;;;;;;;9.43;5.90;;;15.70;99.90;16.00;97096.00;;;;5035295;28;20288;-65
2021/06/07 05:52:46;;;;;;;8.60;5.47;;;15.90;99.90;16.10;97094.00;;;;5045336;28;20205;-65
2021/06/07 05:55:39;;;;;;;10.10;5.37;;;16.00;99.90;16.10;97087.00;;;;5028422;28;20201;-65
2021/06/07 05:58:27;;;;;;;5.50;4.57;;;16.20;99.90;16.20;97097.00;;;;5029205;28;20209;-64
2021/06/07 06:01:15;;;;;;;5.17;4.77;;;16.30;99.90;16.40;97093.00;;;;5028046;28;20695;-65
2021/06/07 06:04:04;;;;;;;5.67;5.17;;;16.50;99.90;16.60;97098.00;;;;5029260;28;20231;-65
2021/06/07 06:06:53;;;;;;;6.63;4.43;;;16.60;99.90;16.80;97101.00;;;;5027260;28;20711;-65
2021/06/07 06:09:41;;;;;;;5.30;4.90;;;16.80;99.90;16.80;97092.00;;;;5028142;28;20225;-65
2021/06/07 06:12:31;;;;;;;5.63;4.70;;;16.90;99.90;17.00;97087.00;;;;5043103;28;20202;-65
2021/06/07 06:15:23;;;;;;;5.07;4.30;;;17.00;99.90;17.20;97099.00;;;;5043504;28;20200;-65
2021/06/07 06:18:12;;;;;;;4.63;4.00;;;17.20;99.90;17.50;97093.00;;;;5028822;28;20675;-65
2021/06/07 06:21:00;;;;;;;5.70;4.10;;;17.30;99.90;17.70;97105.00;;;;5031632;28;20212;-65
2021/06/07 06:23:48;;;;;;;5.47;4.03;;;17.50;99.90;17.90;97107.00;;;;5041701;28;20201;-65
2021/06/07 06:26:37;;;;;;;7.63;3.50;;;17.70;99.90;18.00;97100.00;;;;5025661;28;20236;-65
2021/06/07 06:29:27;;;;;;;4.43;3.60;;;17.90;99.90;18.30;97099.00;;;;5026943;28;20225;-65
2021/06/07 06:32:15;;;;;;;5.47;4.17;;;18.10;99.90;18.40;97097.00;;;;5038571;28;20212;-65
2021/06/07 06:35:05;;;;;;;4.37;3.97;;;18.20;99.90;18.60;97103.00;;;;5045402;28;20197;-65
2021/06/07 06:37:54;;;;;;;8.73;3.80;;;18.40;99.90;18.60;97102.00;;;;5045596;28;20267;-65
2021/06/07 06:40:43;;;;;;;4.93;3.83;;;18.50;99.90;18.60;97102.00;;;;5045507;28;20231;-65
2021/06/07 06:43:31;;;;;;;4.67;4.07;;;18.70;99.90;18.80;97100.00;;;;5045004;28;20205;-65
2021/06/07 06:46:21;;;;;;;6.10;3.30;;;18.80;99.90;18.90;97099.00;;;;5044093;28;20220;-66
2021/06/07 06:49:09;;;;;;;4.00;3.63;;;18.90;99.90;19.30;97098.00;;;;5044585;28;20224;-65
2021/06/07 06:51:59;;;;;;;5.00;3.70;;;19.00;99.90;18.80;97100.00;;;;5027755;28;20198;-66
2021/06/07 06:54:47;;;;;;;8.50;4.10;;;19.10;99.90;19.40;97105.00;;;;5032210;28;20208;-66
2021/06/07 06:57:36;;;;;;;7.17;3.80;;;19.20;99.90;19.60;97102.00;;;;5047669;28;20200;-65
2021/06/07 07:00:25;;;;;;;5.90;3.93;;;19.40;99.90;19.70;97098.00;;;;5044988;28;20224;-65
2021/06/07 07:03:17;;;;;;;4.23;3.53;;;19.50;99.90;19.90;97111.00;;;;5027806;28;20205;-65
2021/06/07 07:06:05;;;;;;;5.97;3.70;;;19.70;99.90;20.00;97117.00;;;;5029464;28;20216;-64
2021/06/07 07:08:54;;;;;;;3.77;3.47;;;19.80;99.90;20.20;97114.00;;;;5027004;28;20661;-65
2021/06/07 07:11:42;;;;;;;4.27;3.60;;;20.00;99.90;20.20;97113.00;;;;5030780;28;20209;-66
2021/06/07 07:14:30;;;;;;;3.77;3.57;;;20.10;99.90;20.30;97116.00;;;;5044093;28;20204;-65
2021/06/07 07:17:19;;;;;;;4.03;3.73;;;20.20;99.90;20.40;97109.00;;;;5045041;28;20647;-64
2021/06/07 07:20:09;;;;;;;3.43;3.13;;;20.20;99.90;20.60;97112.00;;;;5040797;28;20221;-65
2021/06/07 07:22:57;;;;;;;3.80;3.37;;;20.40;99.90;20.60;97117.00;;;;5029994;28;20225;-65
2021/06/07 07:25:47;;;;;;;5.10;3.50;;;20.50;99.90;20.70;97129.00;;;;5034349;28;20189;-65
2021/06/07 07:28:36;;;;;;;4.77;3.60;;;20.60;99.90;20.70;97132.00;;;;5034871;28;20232;-64
2021/06/07 07:31:24;;;;;;;4.63;3.83;;;20.60;99.90;20.50;97120.00;;;;5033500;28;20200;-65
2021/06/07 07:34:12;;;;;;;3.93;3.53;;;20.60;99.90;20.70;97120.00;;;;5042585;28;20204;-65
2021/06/07 07:37:03;;;;;;;3.53;3.23;;;20.70;99.90;20.80;97121.00;;;;5045348;28;20209;-64
2021/06/07 07:39:51;;;;;;;4.53;2.97;;;20.70;99.90;20.90;97124.00;;;;5033880;28;20616;-64
2021/06/07 07:42:40;;;;;;;4.80;4.37;;;20.80;99.90;21.20;97123.00;;;;5058509;28;20196;-64
2021/06/07 07:45:30;;;;;;;3.87;3.57;;;20.90;99.90;21.30;97126.00;;;;5046063;28;20196;-64
2021/06/07 07:48:18;;;;;;;4.20;3.80;;;21.10;99.90;21.30;97124.00;;;;5036751;28;20527;-65
2021/06/07 07:51:06;;;;;;;4.37;3.83;;;21.20;99.90;21.40;97125.00;;;;5029511;28;20216;-66
2021/06/07 07:53:56;;;;;;;4.13;3.83;;;21.30;99.90;21.40;97112.00;;;;5039087;28;20204;-66
2021/06/07 07:56:44;;;;;;;4.67;3.47;;;21.30;99.90;21.60;97123.00;;;;5028903;28;20212;-65
2021/06/07 07:59:33;;;;;;;3.97;3.57;;;21.40;99.90;21.50;97133.00;;;;5042331;28;20225;-66
2021/06/07 08:02:22;;;;;;;3.63;3.33;;;21.50;99.90;21.50;97114.00;;;;5040095;28;20205;-65
2021/06/07 08:05:11;;;;;;;10.03;3.67;;;21.50;99.90;21.30;97116.00;;;;5043360;28;20200;-65
2021/06/07 08:07:59;;;;;;;3.77;3.47;;;21.50;99.90;21.70;97102.00;;;;5041671;28;20600;-64
2021/06/07 08:10:55;;;;;;;4.50;4.10;;;21.60;99.90;22.00;97110.00;;;;5047824;28;20212;-65
2021/06/07 08:13:43;;;;;;;7.67;3.90;;;21.70;99.90;22.20;97119.00;;;;5041576;28;20601;-64
2021/06/07 08:16:32;;;;;;;4.67;3.30;;;21.90;99.90;22.40;97108.00;;;;5043153;28;20205;-65
2021/06/07 08:19:21;;;;;;;4.37;3.83;;;22.00;99.90;22.60;97113.00;;;;5043832;28;20362;-65
2021/06/07 08:22:09;;;;;;;3.97;3.67;;;22.30;99.90;22.80;97110.00;;;;5041368;28;20281;-65
2021/06/07 08:24:57;;;;;;;4.47;4.10;;;22.40;99.90;23.00;97109.00;;;;5039896;28;20204;-65
2021/06/07 08:27:47;;;;;;;6.27;3.80;;;22.60;99.90;23.10;97106.00;;;;5046317;28;20217;-65
2021/06/07 08:30:36;;;;;;;4.10;3.73;;;22.80;99.90;23.30;97108.00;;;;5043917;28;20493;-65
2021/06/07 08:33:24;;;;;;;4.37;3.97;;;22.90;99.90;23.30;97101.00;;;;5049280;28;20204;-65
2021/06/07 08:36:13;;;;;;;4.43;4.03;;;23.10;99.90;23.50;97110.00;;;;5041024;28;20200;-65
2021/06/07 08:39:01;;;;;;;5.70;3.67;;;23.20;99.90;23.70;97102.00;;;;5044474;28;20239;-66
2021/06/07 08:41:50;;;;;;;4.10;3.50;;;23.40;99.90;23.60;97102.00;;;;5037670;28;20193;-66
2021/06/07 08:44:45;;;;;;;5.80;4.00;;;23.50;99.90;23.70;97107.00;;;;5034187;28;20591;-65
2021/06/07 08:47:33;;;;;;;7.67;4.60;;;23.50;99.90;23.70;97108.00;;;;5028132;28;20225;-65
2021/06/07 08:50:24;;;;;;;5.30;4.50;;;23.60;99.90;23.90;97092.00;;;;5035967;28;20251;-65
2021/06/07 08:53:14;;;;;;;4.40;4.00;;;23.70;99.90;24.10;97094.00;;;;5041596;28;20265;-66
2021/06/07 08:56:03;;;;;;;4.40;4.00;;;23.80;99.70;24.30;97087.00;;;;5044898;28;20590;-66
2021/06/07 08:58:51;;;;;;;5.17;4.67;;;23.90;98.50;24.70;97091.00;;;;5046398;28;20212;-66
2021/06/07 09:01:55;;;;;;;4.47;4.07;;;24.10;99.90;25.00;97087.00;;;;5029951;28;20197;-65
2021/06/07 09:04:48;;;;;;;5.13;4.57;;;24.40;99.00;24.90;97086.00;;;;5038593;28;20643;-66
2021/06/07 09:07:57;;;;;;;4.30;3.90;;;24.60;96.90;24.60;97082.00;;;;5037738;28;20232;-66
2021/06/07 09:10:48;;;;;;;5.20;4.80;;;24.60;93.50;25.10;97079.00;;;;5033945;28;20238;-65
2021/06/07 09:13:37;;;;;;;5.03;4.63;;;24.70;92.00;25.40;97088.00;;;;5029049;28;20213;-66
2021/06/07 09:16:39;;;;;;;5.30;4.77;;;24.90;92.60;25.10;97074.00;;;;5045302;28;20210;-66
2021/06/07 09:19:31;;;;;;;4.63;4.30;;;25.00;90.70;25.60;97080.00;;;;5034489;28;20714;-67
2021/06/07 09:22:24;;;;;;;4.83;4.50;;;25.10;91.60;25.40;97072.00;;;;5035027;28;20199;-66
2021/06/07 09:25:16;;;;;;;6.13;4.97;;;25.30;86.40;24.20;97079.00;;;;5042393;28;20588;-66
2021/06/07 09:28:12;;;;;;;5.37;4.10;;;25.20;82.10;24.40;97076.00;;;;5037337;28;20696;-66
2021/06/07 09:31:02;;;;;;;4.43;4.13;;;25.10;81.10;25.00;97073.00;;;;5044040;28;20620;-66
2021/06/07 09:33:51;;;;;;;4.50;4.13;;;25.10;79.30;25.50;97077.00;;;;5037010;28;20199;-66
2021/06/07 09:36:47;;;;;;;5.00;4.50;;;25.10;82.00;25.80;97072.00;;;;5039310;28;20207;-65
2021/06/07 09:39:37;;;;;;;4.80;4.40;;;25.30;83.40;26.40;97075.00;;;;5035025;28;20250;-66
2021/06/07 09:42:27;;;;;;;5.07;4.57;;;25.60;84.60;26.80;97077.00;;;;5034900;28;20198;-66
2021/06/07 09:45:16;;;;;;;7.23;3.87;;;25.90;85.00;27.00;97080.00;;;;5043849;28;20593;-66
2021/06/07 09:48:11;;;;;;;5.53;5.07;;;26.20;80.70;27.10;97069.00;;;;5044029;28;20227;-66
2021/06/07 09:51:03;;;;;;;4.33;3.93;;;26.50;81.00;27.20;97073.00;;;;5041413;28;20237;-66
2021/06/07 09:53:54;;;;;;;4.20;3.90;;;26.70;80.30;27.40;97067.00;;;;5040576;28;20227;-66
2021/06/07 09:56:52;;;;;;;4.53;4.13;;;27.00;79.20;27.50;97068.00;;;;5037463;28;20205;-66
2021/06/07 09:59:45;;;;;;;5.07;4.57;;;27.10;74.90;27.10;97068.00;;;;5042762;28;20246;-66
2021/06/07 10:02:36;;;;;;;5.13;4.67;;;27.10;74.50;26.60;97065.00;;;;5040377;28;20208;-66
2021/06/07 10:05:33;;;;;;;6.87;4.93;;;27.10;71.90;26.00;97059.00;;;;5042648;28;20204;-66
2021/06/07 10:08:23;;;;;;;4.73;4.33;;;26.80;69.80;26.60;97052.00;;;;5041784;28;20234;-66
2021/06/07 10:11:20;;;;;;;6.00;4.90;;;26.60;73.30;27.30;97052.00;;;;5039344;28;20696;-66
2021/06/07 10:14:11;;;;;;;5.07;4.67;;;26.80;73.90;27.60;97057.00;;;;5048710;28;20206;-66
2021/06/07 10:17:02;;;;;;;5.70;4.87;;;27.10;74.30;27.70;97061.00;;;;5043589;28;20207;-66
2021/06/07 10:20:46;;;;;;;4.20;3.63;;;27.20;72.20;27.60;97057.00;;;;5039790;28;20238;-66
2021/06/07 10:22:59;;;;;;;5.13;4.73;;;27.40;71.30;27.40;97045.00;;;;5030677;28;20203;-66
2021/06/07 10:25:48;;;;;;;5.10;4.70;;;27.60;68.90;28.40;97060.00;;;;5036614;28;20204;-64
2021/06/07 10:28:41;;;;;;;4.87;4.50;;;27.70;71.40;26.50;97044.00;;;;5036995;28;20236;-65
2021/06/07 10:31:30;;;;;;;4.53;4.10;;;27.60;65.40;27.20;97047.00;;;;5030462;28;20199;-65
2021/06/07 10:34:18;;;;;;;5.00;4.43;;;27.50;66.60;26.70;97042.00;;;;5044428;28;20217;-66
2021/06/07 10:37:07;;;;;;;4.70;4.37;;;27.30;61.80;25.80;97037.00;;;;5044096;28;20214;-65
2021/06/07 10:40:23;;;;;;;5.57;5.10;;;27.00;64.40;26.10;97043.00;;;;5047860;28;20222;-65
2021/06/07 10:43:14;;;;;;;4.97;4.57;;;26.80;66.20;27.30;97042.00;;;;5041557;28;20215;-66
2021/06/07 10:46:25;;;;;;;4.60;4.17;;;26.80;69.60;28.40;97037.00;;;;5037392;28;20221;-66
2021/06/07 10:49:39;;;;;;;5.30;4.60;;;27.20;69.80;28.00;97041.00;;;;5039498;28;20230;-66
2021/06/07 10:52:29;;;;;;;10.27;5.33;;;27.60;68.20;28.50;97034.00;;;;5042718;28;20702;-65
2021/06/07 10:55:23;;;;;;;5.57;5.07;;;27.90;68.10;28.90;97032.00;;;;5047345;28;20207;-65
2021/06/07 10:58:15;;;;;;;8.23;4.20;;;28.10;67.50;27.20;97040.00;;;;5045227;28;20214;-65
2021/06/07 11:01:04;;;;;;;5.03;4.63;;;28.20;64.40;26.20;97032.00;;;;5046256;28;20226;-66
2021/06/07 11:03:57;;;;;;;5.30;4.80;;;27.70;62.80;28.40;97035.00;;;;5041835;28;20202;-67
2021/06/07 11:06:50;;;;;;;5.27;4.70;;;27.80;67.10;29.10;97022.00;;;;5039102;28;20199;-66
2021/06/07 11:10:14;;;;;;;7.83;4.83;;;28.10;67.70;28.40;97018.00;;;;5037769;28;20231;-67
2021/06/07 11:13:06;;;;;;;6.27;4.63;;;28.30;63.00;28.90;97014.00;;;;5041282;28;20710;-66
2021/06/07 11:15:59;;;;;;;5.60;5.10;;;28.40;62.90;26.00;97041.00;;;;5036861;28;20203;-66
2021/06/07 11:18:57;;;;;;;6.33;5.33;;;27.70;62.80;27.10;97051.00;;;;5041362;28;20208;-66
2021/06/07 11:21:48;;;;;;;5.03;4.63;;;27.40;62.30;27.60;97025.00;;;;5036982;28;20284;-66
2021/06/07 11:24:38;;;;;;;5.40;4.90;;;27.30;65.50;29.40;96992.00;;;;5027414;28;20231;-66
2021/06/07 11:27:39;;;;;;;6.77;5.10;;;27.80;68.30;29.60;96999.00;;;;5041858;28;20203;-66
2021/06/07 11:30:32;;;;;;;5.00;4.60;;;28.40;65.80;30.40;96997.00;;;;5038395;28;20238;-66
2021/06/07 11:33:22;;;;;;;5.23;4.63;;;28.90;64.30;30.80;97000.00;;;;5039853;28;20974;-66
2021/06/07 11:36:47;;;;;;;5.63;4.38;;;29.50;62.40;29.50;96984.00;;;;5044569;28;20199;-66
2021/06/07 11:39:54;;;;;;;5.47;4.45;;;29.80;58.70;30.30;97017.00;;;;5041152;28;20231;-66
2021/06/07 11:42:54;;;;;;;5.65;4.32;;;29.90;59.80;31.10;96977.00;;;;5041268;28;20198;-68
2021/06/07 11:45:43;;;;;;;4.38;4.03;;;30.20;61.10;31.20;96977.00;;;;5044167;28;20202;-66
2021/06/07 11:49:06;;;;;;;5.80;5.30;;;30.40;59.90;30.10;97011.00;;;;5035488;28;20255;-66
2021/06/07 11:52:10;;;;;;;6.35;5.18;;;30.50;57.50;30.10;97025.00;;;;5032441;28;20231;-65
2021/06/07 11:55:00;;;;;;;6.25;4.72;;;30.30;59.50;29.50;97032.00;;;;5033217;28;20229;-65
2021/06/07 11:57:51;;;;;;;4.60;4.20;;;29.90;59.80;28.50;97027.00;;;;5038836;28;20592;-65
2021/06/07 12:00:42;;;;;;;4.72;4.38;;;29.40;57.90;27.80;97029.00;;;;5037151;28;20985;-65
2021/06/07 12:03:32;;;;;;;5.30;4.80;;;28.90;59.10;28.00;97006.00;;;;5041849;28;20244;-66
2021/06/07 12:06:20;;;;;;;4.97;4.57;;;28.50;59.00;29.20;96954.00;;;;5036260;28;20214;-65
2021/06/07 12:09:11;;;;;;;4.53;4.10;;;28.50;58.90;29.60;97018.00;;;;5040077;28;20631;-66
2021/06/07 12:12:00;;;;;;;4.70;3.83;;;28.70;60.60;30.30;96963.00;;;;5039685;28;20694;-66
2021/06/07 12:14:51;;;;;;;6.55;4.30;;;29.00;61.60;31.10;96954.00;;;;5034765;28;20211;-67
2021/06/07 12:17:45;;;;;;;6.50;4.50;;;29.50;60.50;31.30;96958.00;;;;5030349;28;20196;-66
2021/06/07 12:20:34;;;;;;;4.60;4.20;;;30.00;59.40;31.10;97028.00;;;;5039603;28;20235;-65
2021/06/07 12:23:30;;;;;;;5.30;4.70;;;30.20;59.10;29.60;97026.00;;;;5032360;28;20543;-65
2021/06/07 12:29:34;;;;;;;4.80;4.40;;;29.50;57.30;28.50;97019.00;;;;5033554;28;20238;-65
2021/06/07 12:32:24;;;;;;;5.82;4.78;;;29.10;58.30;28.30;97013.00;;;;5035017;28;20215;-66
2021/06/07 12:35:15;;;;;;;5.15;4.35;;;28.90;58.70;30.00;96957.00;;;;5041610;28;20205;-65
2021/06/07 12:38:07;;;;;;;4.50;4.10;;;29.10;58.40;30.80;96947.00;;;;5044987;28;20215;-64
2021/06/07 12:41:00;;;;;;;4.55;4.20;;;29.40;58.50;31.20;96942.00;;;;5025106;28;20232;-64
2021/06/07 12:43:51;;;;;;;4.88;4.30;;;29.90;57.70;31.20;96948.00;;;;5036943;28;20303;-64